createdAt,value
2018-08-11T00:00:28.902Z,8.17
2018-08-11T00:02:57.573Z,12.80
2018-08-11T00:05:26.175Z,9.83
2018-08-11T00:07:54.768Z,9.27
2018-08-11T00:10:23.362Z,4.53
2018-08-11T00:12:51.928Z,5.57
2018-08-11T00:15:21.219Z,3.03
2018-08-11T00:17:49.842Z,4.83
2018-08-11T00:20:33.082Z,2.80
2018-08-11T00:23:01.636Z,1.53
2018-08-11T00:25:30.505Z,6.57
2018-08-11T00:27:59.129Z,6.70
2018-08-11T00:30:58.010Z,3.80
2018-08-11T00:33:26.559Z,4.93
2018-08-11T00:35:55.059Z,1.83
2018-08-11T00:38:23.526Z,3.90
2018-08-11T00:40:52.013Z,4.07
2018-08-11T00:43:20.527Z,2.00
2018-08-11T00:45:49.101Z,3.57
2018-08-11T00:48:18.111Z,2.17
2018-08-11T00:50:46.690Z,4.83
2018-08-11T00:53:15.292Z,1.63
2018-08-11T00:55:43.868Z,2.87
2018-08-11T00:58:12.410Z,3.17
2018-08-11T01:00:40.882Z,3.27
2018-08-11T01:03:10.521Z,5.43
2018-08-11T01:05:52.089Z,6.37
2018-08-11T01:08:20.589Z,4.60
2018-08-11T01:10:49.062Z,5.03
2018-08-11T01:13:17.663Z,3.40
2018-08-11T01:15:46.257Z,7.37
2018-08-11T01:18:20.448Z,6.67
2018-08-11T01:20:53.784Z,4.73
2018-08-11T01:23:22.253Z,7.60
2018-08-11T01:25:50.801Z,5.53
2018-08-11T01:28:19.257Z,4.83
2018-08-11T01:30:47.819Z,6.23
2018-08-11T01:33:18.622Z,6.70
2018-08-11T01:35:47.174Z,6.50
2018-08-11T01:38:15.756Z,10.37
2018-08-11T01:40:44.249Z,10.57
2018-08-11T01:43:12.782Z,14.30
2018-08-11T01:45:41.334Z,14.10
2018-08-11T01:48:09.924Z,9.00
2018-08-11T01:50:38.498Z,6.47
2018-08-11T01:53:07.072Z,6.23
2018-08-11T01:55:35.563Z,6.20
2018-08-11T01:58:04.028Z,7.67
2018-08-11T02:00:32.513Z,5.13
2018-08-11T02:03:01.045Z,6.10
2018-08-11T02:05:29.622Z,6.10
2018-08-11T02:07:58.098Z,6.73
2018-08-11T02:10:26.648Z,4.23
2018-08-11T02:12:55.118Z,7.87
2018-08-11T02:15:23.635Z,4.57
2018-08-11T02:17:52.139Z,3.97
2018-08-11T02:20:20.678Z,4.27
2018-08-11T02:22:49.953Z,3.83
2018-08-11T02:25:18.452Z,5.10
2018-08-11T02:27:46.944Z,3.90
2018-08-11T02:30:17.426Z,5.20
2018-08-11T02:32:46.351Z,4.93
2018-08-11T02:35:15.243Z,4.37
2018-08-11T02:37:44.337Z,4.00
2018-08-11T02:40:15.426Z,5.83
2018-08-11T02:42:44.025Z,4.80
2018-08-11T02:45:14.333Z,4.93
2018-08-11T02:47:42.839Z,6.73
2018-08-11T02:50:13.309Z,3.97
2018-08-11T02:52:42.315Z,7.03
2018-08-11T02:55:11.008Z,3.73
2018-08-11T02:57:40.690Z,5.93
2018-08-11T03:00:10.921Z,6.07
2018-08-11T03:02:39.458Z,4.53
2018-08-11T03:05:07.974Z,4.30
2018-08-11T03:07:36.832Z,7.43
2018-08-11T03:10:06.539Z,4.53
2018-08-11T03:12:38.676Z,8.27
2018-08-11T03:15:08.446Z,5.30
2018-08-11T03:17:37.084Z,6.87
2018-08-11T03:20:08.215Z,6.47
2018-08-11T03:22:36.771Z,6.27
2018-08-11T03:25:06.716Z,11.27
2018-08-11T03:27:35.285Z,8.37
2018-08-11T03:30:04.213Z,11.13
2018-08-11T03:32:33.085Z,10.93
2018-08-11T03:35:01.553Z,6.83
2018-08-11T03:37:30.134Z,8.33
2018-08-11T03:39:58.609Z,8.87
2018-08-11T03:42:27.155Z,9.87
2018-08-11T03:44:55.625Z,10.37
2018-08-11T03:47:24.574Z,9.83
2018-08-11T03:49:53.157Z,10.13
2018-08-11T03:52:21.737Z,9.30
2018-08-11T03:54:50.219Z,8.37
2018-08-11T03:57:18.716Z,10.07
2018-08-11T03:59:47.293Z,13.17
2018-08-11T04:02:17.646Z,16.70
2018-08-11T04:04:46.169Z,11.40
2018-08-11T04:07:14.698Z,11.87
2018-08-11T04:09:43.169Z,12.00
2018-08-11T04:12:11.633Z,12.23
2018-08-11T04:14:40.865Z,13.93
2018-08-11T04:17:23.763Z,13.53
2018-08-11T04:19:52.200Z,14.03
2018-08-11T04:22:20.928Z,15.30
2018-08-11T04:24:49.412Z,10.67
2018-08-11T04:27:18.003Z,14.30
2018-08-11T04:29:46.477Z,14.07
2018-08-11T04:32:14.951Z,15.77
2018-08-11T04:34:43.465Z,17.50
2018-08-11T04:37:11.948Z,15.90
2018-08-11T04:39:40.596Z,14.73
2018-08-11T04:42:09.065Z,12.77
2018-08-11T04:44:37.606Z,14.17
2018-08-11T04:47:06.129Z,15.90
2018-08-11T04:49:34.639Z,14.07
2018-08-11T04:52:03.153Z,11.80
2018-08-11T04:54:31.732Z,14.00
2018-08-11T04:57:00.174Z,16.30
2018-08-11T04:59:28.774Z,20.30
2018-08-11T05:01:57.553Z,16.27
2018-08-11T05:04:26.028Z,13.87
2018-08-11T05:06:54.519Z,15.23
2018-08-11T05:09:23.218Z,18.00
2018-08-11T05:11:51.861Z,10.60
2018-08-11T05:16:47.008Z,14.37
2018-08-11T05:19:15.498Z,15.73
2018-08-11T05:21:43.939Z,15.80
2018-08-11T05:24:12.602Z,16.17
2018-08-11T05:26:41.199Z,14.13
2018-08-11T05:29:09.752Z,14.27
2018-08-11T05:31:38.203Z,17.80
2018-08-11T05:34:06.811Z,21.43
2018-08-11T05:36:35.409Z,19.83
2018-08-11T05:39:05.065Z,16.97
2018-08-11T05:41:33.599Z,12.40
2018-08-11T05:44:02.170Z,22.13
2018-08-11T05:46:30.743Z,15.23
2018-08-11T05:48:59.263Z,14.23
2018-08-11T05:51:27.807Z,12.97
2018-08-11T05:53:56.432Z,15.70
2018-08-11T05:56:24.934Z,17.20
2018-08-11T05:58:53.557Z,15.37
2018-08-11T06:01:22.056Z,20.00
2018-08-11T06:03:50.588Z,16.60
2018-08-11T06:06:19.122Z,15.50
2018-08-11T06:08:47.706Z,13.53
2018-08-11T06:11:16.259Z,15.17
2018-08-11T06:13:44.701Z,13.10
2018-08-11T06:16:13.377Z,14.13
2018-08-11T06:18:41.936Z,20.10
2018-08-11T06:21:10.479Z,14.17
2018-08-11T06:23:39.106Z,11.43
2018-08-11T06:26:08.022Z,12.47
2018-08-11T06:28:36.661Z,15.40
2018-08-11T06:31:05.325Z,10.23
2018-08-11T06:33:33.849Z,11.63
2018-08-11T06:36:02.355Z,12.17
2018-08-11T06:38:30.833Z,14.17
2018-08-11T06:40:59.566Z,11.53
2018-08-11T06:43:27.854Z,9.57
2018-08-11T06:45:56.396Z,10.10
2018-08-11T06:48:24.882Z,9.83
2018-08-11T06:50:55.112Z,8.97
2018-08-11T06:53:23.613Z,10.73
2018-08-11T06:55:52.062Z,9.07
2018-08-11T06:58:20.677Z,11.57
2018-08-11T07:00:49.193Z,12.40
2018-08-11T07:03:17.665Z,12.70
2018-08-11T07:05:46.174Z,14.37
2018-08-11T07:08:14.866Z,7.47
2018-08-11T07:10:43.534Z,13.27
2018-08-11T07:13:12.024Z,10.33
2018-08-11T07:15:40.589Z,7.80
2018-08-11T07:18:09.105Z,10.53
2018-08-11T07:20:37.681Z,10.00
2018-08-11T07:23:06.320Z,9.20
2018-08-11T07:25:34.968Z,5.00
2018-08-11T07:28:03.564Z,7.77
2018-08-11T07:30:32.210Z,6.87
2018-08-11T07:33:00.846Z,9.53
2018-08-11T07:35:29.402Z,6.70
2018-08-11T07:37:57.973Z,10.57
2018-08-11T07:40:26.546Z,5.77
2018-08-11T07:42:55.128Z,7.77
2018-08-11T07:45:23.712Z,7.63
2018-08-11T07:47:52.296Z,8.10
2018-08-11T07:50:20.908Z,7.00
2018-08-11T07:52:49.361Z,7.77
2018-08-11T07:55:18.048Z,9.07
2018-08-11T07:57:46.648Z,5.23
2018-08-11T08:00:15.247Z,11.63
2018-08-11T08:02:43.973Z,7.87
2018-08-11T08:05:12.633Z,6.50
2018-08-11T08:07:41.291Z,7.17
2018-08-11T08:10:09.820Z,6.07
2018-08-11T08:12:38.467Z,5.83
2018-08-11T08:15:07.424Z,6.63
2018-08-11T08:17:35.960Z,6.17
2018-08-11T08:20:05.174Z,4.17
2018-08-11T08:22:33.752Z,10.07
2018-08-11T08:25:02.295Z,5.60
2018-08-11T08:27:30.764Z,9.57
2018-08-11T08:29:59.389Z,6.70
2018-08-11T08:32:27.953Z,6.93
2018-08-11T08:34:56.522Z,6.90
2018-08-11T08:37:25.116Z,4.67
2018-08-11T08:39:53.814Z,5.97
2018-08-11T08:42:22.422Z,5.70
2018-08-11T08:44:51.060Z,6.13
2018-08-11T08:47:19.511Z,9.07
2018-08-11T08:49:48.068Z,8.43
2018-08-11T08:52:17.012Z,8.53
2018-08-11T08:54:46.116Z,7.47
2018-08-11T08:57:14.943Z,6.73
2018-08-11T08:59:43.697Z,4.70
2018-08-11T09:02:12.158Z,5.20
2018-08-11T09:04:40.811Z,6.27
2018-08-11T09:07:09.291Z,5.03
2018-08-11T09:09:37.937Z,7.03
2018-08-11T09:12:06.805Z,6.33
2018-08-11T09:14:35.240Z,3.17
2018-08-11T09:17:03.691Z,4.50
2018-08-11T09:19:32.308Z,6.40
2018-08-11T09:22:00.856Z,6.20
2018-08-11T09:24:29.425Z,3.97
2018-08-11T09:26:57.909Z,4.93
2018-08-11T09:29:26.393Z,4.37
2018-08-11T09:31:54.994Z,6.67
2018-08-11T09:34:23.599Z,5.97
2018-08-11T09:37:40.154Z,4.97
2018-08-11T09:40:08.785Z,3.97
2018-08-11T09:42:37.347Z,6.90
2018-08-11T09:45:06.262Z,3.67
2018-08-11T09:47:34.800Z,2.97
2018-08-11T09:50:03.357Z,6.47
2018-08-11T09:52:31.818Z,5.53
2018-08-11T09:55:00.566Z,2.13
2018-08-11T09:57:29.161Z,2.73
2018-08-11T09:59:57.666Z,2.90
2018-08-11T10:02:26.341Z,4.23
2018-08-11T10:04:54.816Z,2.70
2018-08-11T10:07:23.380Z,7.60
2018-08-11T10:09:51.863Z,4.87
2018-08-11T10:12:20.365Z,3.30
2018-08-11T10:14:49.001Z,5.30
2018-08-11T10:17:17.503Z,3.57
2018-08-11T10:19:46.113Z,3.67
2018-08-11T10:22:14.788Z,5.47
2018-08-11T10:24:43.268Z,6.17
2018-08-11T10:27:11.864Z,2.87
2018-08-11T10:29:40.433Z,1.57
2018-08-11T10:32:08.965Z,5.07
2018-08-11T10:34:37.499Z,4.50
2018-08-11T10:37:06.069Z,3.57
2018-08-11T10:39:34.572Z,3.33
2018-08-11T10:42:03.059Z,2.33
2018-08-11T10:44:31.639Z,2.73
2018-08-11T10:47:00.114Z,6.13
2018-08-11T10:49:28.690Z,3.70
2018-08-11T10:51:57.243Z,3.30
2018-08-11T10:54:25.859Z,4.70
2018-08-11T10:56:54.477Z,4.90
2018-08-11T10:59:22.921Z,7.10
2018-08-11T11:01:51.519Z,6.53
2018-08-11T11:04:20.229Z,4.83
2018-08-11T11:06:48.813Z,6.07
2018-08-11T11:09:17.358Z,4.53
2018-08-11T11:12:14.445Z,17.90
2018-08-11T11:14:43.000Z,2.20
2018-08-11T11:17:11.460Z,3.00
2018-08-11T11:19:39.931Z,3.73
2018-08-11T11:22:08.458Z,3.73
2018-08-11T11:24:36.928Z,3.17
2018-08-11T11:27:05.665Z,4.23
2018-08-11T11:29:34.404Z,4.10
2018-08-11T11:32:02.928Z,5.00
2018-08-11T11:34:31.507Z,8.13
2018-08-11T11:37:00.078Z,8.37
2018-08-11T11:39:28.654Z,5.97
2018-08-11T11:41:57.282Z,7.27
2018-08-11T11:44:26.021Z,10.40
2018-08-11T11:46:54.585Z,3.30
2018-08-11T11:49:23.112Z,5.60
2018-08-11T11:51:51.572Z,8.97
2018-08-11T11:54:20.068Z,7.53
2018-08-11T11:56:48.648Z,4.33
2018-08-11T11:59:17.217Z,3.93
2018-08-11T12:01:45.783Z,5.27
2018-08-11T12:04:14.349Z,6.20
2018-08-11T12:06:42.852Z,3.97
2018-08-11T12:09:11.862Z,4.13
2018-08-11T12:11:40.657Z,4.50
2018-08-11T12:14:09.425Z,2.90
2018-08-11T12:16:38.124Z,3.63
2018-08-11T12:19:06.838Z,4.03
2018-08-11T12:21:35.501Z,3.57
2018-08-11T12:24:04.036Z,4.30
2018-08-11T12:26:32.512Z,8.07
2018-08-11T12:29:01.004Z,4.80
2018-08-11T12:31:29.533Z,4.20
2018-08-11T12:33:57.999Z,4.20
2018-08-11T12:36:26.651Z,3.03
2018-08-11T12:38:55.369Z,5.53
2018-08-11T12:41:24.128Z,4.17
2018-08-11T12:43:52.750Z,4.93
2018-08-11T12:46:21.326Z,3.43
2018-08-11T12:48:49.814Z,2.70
2018-08-11T12:51:18.384Z,5.33
2018-08-11T12:53:46.906Z,3.23
2018-08-11T12:56:15.868Z,5.13
2018-08-11T12:58:44.329Z,4.30
2018-08-11T13:01:13.080Z,2.90
2018-08-11T13:03:41.630Z,2.37
2018-08-11T13:06:10.310Z,3.57
2018-08-11T13:08:38.818Z,3.93
2018-08-11T13:11:07.467Z,4.47
2018-08-11T13:13:36.169Z,3.70
2018-08-11T13:16:04.768Z,2.83
2018-08-11T13:18:33.377Z,3.73
2018-08-11T13:21:02.227Z,2.97
2018-08-11T13:23:30.963Z,3.63
2018-08-11T13:25:59.553Z,3.90
2018-08-11T13:28:28.063Z,2.07
2018-08-11T13:30:56.671Z,5.07
2018-08-11T13:33:25.671Z,9.30
2018-08-11T13:35:54.344Z,4.20
2018-08-11T13:38:22.929Z,2.30
2018-08-11T13:40:51.504Z,4.90
2018-08-11T13:43:20.082Z,1.40
2018-08-11T13:45:48.681Z,4.03
2018-08-11T13:48:17.499Z,4.87
2018-08-11T13:50:46.383Z,1.77
2018-08-11T13:53:22.324Z,5.17
2018-08-11T13:55:50.888Z,4.33
2018-08-11T13:58:20.040Z,5.33
2018-08-11T14:00:48.787Z,3.67
2018-08-11T14:03:45.343Z,3.77
2018-08-11T14:06:14.133Z,2.10
2018-08-11T14:08:42.678Z,4.43
2018-08-11T14:11:11.576Z,2.80
2018-08-11T14:13:40.321Z,3.03
2018-08-11T14:16:08.998Z,5.23
2018-08-11T14:18:37.638Z,5.27
2018-08-11T14:21:06.513Z,4.27
2018-08-11T14:23:35.004Z,3.67
2018-08-11T14:26:03.971Z,2.67
2018-08-11T14:29:00.366Z,4.27
2018-08-11T14:31:29.340Z,3.43
2018-08-11T14:33:58.223Z,3.03
2018-08-11T14:36:28.884Z,2.70
2018-08-11T14:38:57.847Z,3.47
2018-08-11T14:41:27.400Z,4.67
2018-08-11T14:43:56.174Z,2.60
2018-08-11T14:46:24.740Z,3.80
2018-08-11T14:48:53.546Z,3.33
2018-08-11T14:51:22.238Z,3.53
2018-08-11T14:53:50.891Z,3.00
2018-08-11T14:56:19.564Z,3.70
2018-08-11T14:58:48.059Z,2.27
2018-08-11T15:01:16.634Z,3.87
2018-08-11T15:03:45.539Z,5.50
2018-08-11T15:06:14.084Z,3.17
2018-08-11T15:08:42.834Z,3.07
2018-08-11T15:11:11.620Z,3.60
2018-08-11T15:13:40.398Z,3.60
2018-08-11T15:16:09.020Z,5.17
2018-08-11T15:18:37.957Z,4.33
2018-08-11T15:21:06.584Z,2.50
2018-08-11T15:23:36.745Z,4.47
2018-08-11T15:26:05.346Z,4.83
2018-08-11T15:28:33.888Z,3.67
2018-08-11T15:31:02.553Z,2.47
2018-08-11T15:33:31.188Z,3.03
2018-08-11T15:35:59.776Z,3.70
2018-08-11T15:38:28.427Z,4.40
2018-08-11T15:40:57.245Z,2.97
2018-08-11T15:43:25.963Z,5.67
2018-08-11T15:45:54.527Z,3.87
2018-08-11T15:48:23.354Z,5.37
2018-08-11T15:50:51.872Z,3.77
2018-08-11T15:53:20.376Z,3.37
2018-08-11T15:55:48.862Z,5.50
2018-08-11T15:58:17.450Z,4.07
2018-08-11T16:00:46.210Z,6.63
2018-08-11T16:03:15.069Z,6.53
2018-08-11T16:05:43.680Z,5.07
2018-08-11T16:08:12.283Z,4.83
2018-08-11T16:10:41.089Z,2.90
2018-08-11T16:13:09.931Z,5.13
2018-08-11T16:15:38.600Z,2.47
2018-08-11T16:18:07.141Z,4.93
2018-08-11T16:20:35.900Z,3.63
2018-08-11T16:23:05.372Z,3.80
2018-08-11T16:25:33.914Z,2.60
2018-08-11T16:28:02.702Z,6.57
2018-08-11T16:30:31.701Z,2.73
2018-08-11T16:33:01.586Z,3.30
2018-08-11T16:35:30.117Z,3.83
2018-08-11T16:37:58.922Z,5.13
2018-08-11T16:40:28.107Z,4.43
2018-08-11T16:42:57.132Z,3.60
2018-08-11T16:45:26.336Z,2.33
2018-08-11T16:47:55.839Z,2.37
2018-08-11T16:50:24.673Z,4.53
2018-08-11T16:52:53.109Z,6.43
2018-08-11T16:55:22.070Z,3.37
2018-08-11T16:57:50.744Z,4.60
2018-08-11T17:00:21.064Z,4.10
2018-08-11T17:02:49.692Z,3.87
2018-08-11T17:05:18.528Z,4.40
2018-08-11T17:07:47.115Z,3.97
2018-08-11T17:10:15.932Z,3.87
2018-08-11T17:12:45.078Z,2.93
2018-08-11T17:15:15.303Z,3.03
2018-08-11T17:17:44.090Z,4.40
2018-08-11T17:20:12.589Z,5.23
2018-08-11T17:22:41.345Z,2.83
2018-08-11T17:25:10.763Z,4.40
2018-08-11T17:27:39.200Z,5.50
2018-08-11T17:30:14.975Z,3.90
2018-08-11T17:32:43.877Z,4.53
2018-08-11T17:35:13.101Z,3.37
2018-08-11T17:37:42.644Z,4.30
2018-08-11T17:40:11.107Z,3.73
2018-08-11T17:42:39.670Z,4.07
2018-08-11T17:45:08.253Z,2.80
2018-08-11T17:47:36.756Z,4.53
2018-08-11T17:50:10.780Z,3.10
2018-08-11T17:52:39.726Z,3.07
2018-08-11T17:55:09.736Z,3.17
2018-08-11T17:57:38.634Z,5.87
2018-08-11T18:00:07.704Z,4.90
2018-08-11T18:02:37.256Z,4.53
2018-08-11T18:05:06.284Z,2.47
2018-08-11T18:07:35.128Z,3.77
2018-08-11T18:10:03.757Z,7.40
2018-08-11T18:12:33.781Z,5.23
2018-08-11T18:15:02.868Z,6.03
2018-08-11T18:17:31.640Z,3.80
2018-08-11T18:20:36.032Z,4.43
2018-08-11T18:23:05.479Z,5.40
2018-08-11T18:25:34.051Z,6.73
2018-08-11T18:28:03.011Z,6.83
2018-08-11T18:30:32.029Z,3.00
2018-08-11T18:33:00.859Z,5.90
2018-08-11T18:35:29.875Z,4.73
2018-08-11T18:37:58.784Z,4.57
2018-08-11T18:40:32.259Z,5.53
2018-08-11T18:43:00.768Z,3.50
2018-08-11T18:45:29.272Z,4.13
2018-08-11T18:47:57.840Z,4.87
2018-08-11T18:50:26.784Z,5.73
2018-08-11T18:53:10.665Z,3.10
2018-08-11T18:55:39.806Z,4.33
2018-08-11T18:58:08.281Z,3.00
2018-08-11T19:00:37.239Z,4.57
2018-08-11T19:03:05.937Z,4.30
2018-08-11T19:05:34.530Z,3.53
2018-08-11T19:08:03.968Z,6.97
2018-08-11T19:10:33.161Z,3.93
2018-08-11T19:13:01.724Z,4.47
2018-08-11T19:15:30.193Z,3.20
2018-08-11T19:17:58.881Z,7.80
2018-08-11T19:20:27.581Z,3.97
2018-08-11T19:22:56.757Z,3.40
2018-08-11T19:25:25.956Z,4.33
2018-08-11T19:27:55.121Z,7.23
2018-08-11T19:30:23.776Z,5.30
2018-08-11T19:32:52.772Z,3.50
2018-08-11T19:35:21.274Z,5.60
2018-08-11T19:37:50.718Z,4.17
2018-08-11T19:40:36.970Z,3.17
2018-08-11T19:43:06.068Z,6.37
2018-08-11T19:45:34.962Z,5.90
2018-08-11T19:48:04.147Z,3.37
2018-08-11T19:50:32.992Z,6.83
2018-08-11T19:53:01.577Z,7.77
2018-08-11T19:55:30.541Z,5.63
2018-08-11T19:57:59.477Z,3.60
2018-08-11T20:00:28.815Z,4.87
2018-08-11T20:02:57.371Z,3.83
2018-08-11T20:05:26.246Z,3.77
2018-08-11T20:07:55.396Z,3.63
2018-08-11T20:10:24.811Z,5.57
2018-08-11T20:12:53.626Z,7.13
2018-08-11T20:15:22.121Z,3.83
2018-08-11T20:17:51.363Z,4.30
2018-08-11T20:20:20.341Z,3.50
2018-08-11T20:22:49.495Z,5.90
2018-08-11T20:25:18.072Z,5.90
2018-08-11T20:27:46.704Z,3.83
2018-08-11T20:30:15.632Z,5.00
2018-08-11T20:32:44.231Z,6.80
2018-08-11T20:35:12.800Z,4.27
2018-08-11T20:37:42.130Z,6.60
2018-08-11T20:40:10.755Z,4.40
2018-08-11T20:42:39.410Z,6.63
2018-08-11T20:45:09.164Z,4.23
2018-08-11T20:47:37.953Z,5.17
2018-08-11T20:50:07.255Z,8.13
2018-08-11T20:52:35.805Z,5.30
2018-08-11T20:55:05.041Z,6.87
2018-08-11T20:57:33.619Z,5.03
2018-08-11T21:00:02.221Z,5.00
2018-08-11T21:02:30.748Z,7.70
2018-08-11T21:04:59.362Z,4.50
2018-08-11T21:07:27.912Z,5.30
2018-08-11T21:09:56.517Z,5.40
2018-08-11T21:12:25.133Z,4.90
2018-08-11T21:14:53.908Z,5.00
2018-08-11T21:17:22.481Z,7.17
2018-08-11T21:20:14.951Z,4.40
2018-08-11T21:22:43.514Z,5.63
2018-08-11T21:25:12.522Z,8.03
2018-08-11T21:27:41.081Z,6.00
2018-08-11T21:30:12.013Z,6.03
2018-08-11T21:32:40.835Z,6.83
2018-08-11T21:35:09.832Z,7.03
2018-08-11T21:37:38.423Z,7.07
2018-08-11T21:40:13.008Z,8.43
2018-08-11T21:42:41.939Z,7.43
2018-08-11T21:45:39.073Z,8.57
2018-08-11T21:48:07.657Z,5.97
2018-08-11T21:50:36.189Z,5.83
2018-08-11T21:53:04.804Z,6.30
2018-08-11T21:55:33.538Z,7.40
2018-08-11T21:58:02.104Z,7.07
2018-08-11T22:00:33.852Z,6.87
2018-08-11T22:03:03.596Z,7.50
2018-08-11T22:05:32.254Z,7.73
2018-08-11T22:08:01.726Z,5.60
2018-08-11T22:10:30.626Z,6.50
2018-08-11T22:12:59.395Z,7.67
2018-08-11T22:15:28.285Z,6.67
2018-08-11T22:17:56.909Z,5.60
2018-08-11T22:20:25.509Z,8.43
2018-08-11T22:23:30.144Z,5.80
2018-08-11T22:25:58.678Z,4.43
2018-08-11T22:28:27.203Z,5.00
2018-08-11T22:31:03.907Z,6.17
2018-08-11T22:33:32.564Z,7.27
2018-08-11T22:36:01.162Z,7.43
2018-08-11T22:38:29.711Z,6.20
2018-08-11T22:40:58.285Z,8.90
2018-08-11T22:43:26.897Z,6.67
2018-08-11T22:45:55.491Z,6.67
2018-08-11T22:48:24.075Z,6.27
2018-08-11T22:50:52.652Z,6.63
2018-08-11T22:53:21.250Z,5.60
2018-08-11T22:55:49.769Z,4.57
2018-08-11T22:58:18.509Z,5.33
2018-08-11T23:00:47.093Z,6.40
2018-08-11T23:03:15.629Z,5.70
2018-08-11T23:05:44.159Z,5.63
2018-08-11T23:08:12.708Z,8.03
2018-08-11T23:10:41.312Z,6.83
2018-08-11T23:13:09.872Z,6.23
2018-08-11T23:15:38.577Z,5.93
2018-08-11T23:18:07.164Z,7.53
2018-08-11T23:20:35.689Z,8.13
2018-08-11T23:23:04.321Z,5.80
2018-08-11T23:25:32.913Z,9.47
2018-08-11T23:28:01.502Z,6.33
2018-08-11T23:30:29.953Z,7.23
2018-08-11T23:32:58.570Z,5.30
2018-08-11T23:35:27.068Z,7.07
2018-08-11T23:37:56.879Z,5.80
2018-08-11T23:40:25.430Z,5.53
2018-08-11T23:42:54.072Z,5.23
2018-08-11T23:45:22.605Z,5.70
2018-08-11T23:47:51.195Z,6.00
2018-08-11T23:50:19.772Z,5.10
2018-08-11T23:52:48.549Z,7.30
2018-08-11T23:55:17.054Z,6.07
2018-08-11T23:57:45.646Z,5.80
